createdAt,value
2018-06-30T00:00:51.062Z,99.90
2018-06-30T00:03:19.533Z,99.90
2018-06-30T00:08:16.782Z,99.90
2018-06-30T00:10:45.226Z,99.90
2018-06-30T00:13:13.683Z,99.90
2018-06-30T00:15:42.122Z,99.90
2018-06-30T00:18:10.557Z,99.90
2018-06-30T00:20:39.026Z,99.90
2018-06-30T00:23:07.477Z,99.90
2018-06-30T00:28:04.110Z,99.90
2018-06-30T00:30:32.568Z,99.90
2018-06-30T00:33:00.998Z,99.90
2018-06-30T00:35:29.418Z,99.90
2018-06-30T00:37:57.853Z,99.90
2018-06-30T00:40:26.302Z,99.90
2018-06-30T00:42:54.712Z,99.90
2018-06-30T00:47:51.269Z,99.90
2018-06-30T00:50:19.718Z,99.90
2018-06-30T00:52:48.166Z,99.90
2018-06-30T00:55:16.625Z,99.90
2018-06-30T00:57:45.057Z,99.90
2018-06-30T01:00:13.510Z,99.90
2018-06-30T01:02:41.944Z,99.90
2018-06-30T01:05:10.425Z,99.90
2018-06-30T01:07:38.866Z,99.90
2018-06-30T01:10:07.411Z,99.90
2018-06-30T01:12:35.842Z,99.90
2018-06-30T01:15:04.354Z,99.90
2018-06-30T01:17:32.775Z,99.90
2018-06-30T01:20:01.208Z,99.90
2018-06-30T01:22:29.637Z,99.90
2018-06-30T01:24:58.065Z,99.90
2018-06-30T01:27:26.540Z,99.90
2018-06-30T01:29:55.017Z,99.90
2018-06-30T01:32:23.485Z,99.90
2018-06-30T01:34:51.889Z,99.90
2018-06-30T01:37:20.349Z,99.90
2018-06-30T01:42:16.877Z,99.90
2018-06-30T01:44:45.313Z,99.90
2018-06-30T01:47:13.742Z,99.90
2018-06-30T01:49:42.165Z,99.90
2018-06-30T01:52:10.597Z,99.90
2018-06-30T01:54:39.039Z,99.90
2018-06-30T01:57:07.531Z,99.90
2018-06-30T01:59:35.974Z,99.90
2018-06-30T02:02:04.546Z,99.90
2018-06-30T02:04:32.973Z,99.90
2018-06-30T02:07:01.423Z,99.90
2018-06-30T02:09:29.843Z,99.90
2018-06-30T02:11:58.296Z,99.90
2018-06-30T02:14:26.722Z,99.90
2018-06-30T02:16:55.132Z,99.90
2018-06-30T02:19:23.577Z,99.90
2018-06-30T02:21:51.989Z,99.90
2018-06-30T02:24:20.471Z,99.90
2018-06-30T02:26:48.895Z,99.90
2018-06-30T02:29:17.376Z,99.90
2018-06-30T02:31:45.823Z,99.90
2018-06-30T02:34:14.292Z,99.90
2018-06-30T02:36:42.762Z,99.90
2018-06-30T02:41:39.534Z,99.90
2018-06-30T02:44:08.023Z,99.90
2018-06-30T02:46:36.498Z,99.90
2018-06-30T02:49:05.133Z,99.90
2018-06-30T02:51:33.578Z,99.90
2018-06-30T02:54:02.025Z,99.90
2018-06-30T02:56:30.435Z,99.90
2018-06-30T02:58:58.854Z,99.90
2018-06-30T03:01:27.290Z,99.90
2018-06-30T03:03:55.718Z,99.90
2018-06-30T03:06:24.141Z,99.90
2018-06-30T03:08:52.574Z,99.90
2018-06-30T03:11:21.026Z,99.90
2018-06-30T03:13:49.446Z,99.90
2018-06-30T03:16:18.271Z,99.90
2018-06-30T03:18:47.950Z,99.90
2018-06-30T03:23:44.529Z,99.90
2018-06-30T03:26:13.009Z,99.90
2018-06-30T03:28:41.448Z,99.90
2018-06-30T03:31:09.929Z,99.90
2018-06-30T03:33:38.329Z,99.90
2018-06-30T03:38:34.933Z,99.90
2018-06-30T03:43:31.483Z,99.90
2018-06-30T03:45:59.941Z,99.90
2018-06-30T03:48:28.385Z,99.90
2018-06-30T03:50:56.830Z,99.90
2018-06-30T03:53:25.245Z,99.90
2018-06-30T03:55:53.716Z,99.90
2018-06-30T03:58:22.133Z,99.90
2018-06-30T04:00:50.604Z,99.90
2018-06-30T04:03:19.022Z,99.90
2018-06-30T04:05:47.458Z,99.90
2018-06-30T04:08:15.899Z,99.90
2018-06-30T04:10:44.330Z,99.90
2018-06-30T04:13:12.779Z,99.90
2018-06-30T04:15:41.189Z,99.90
2018-06-30T04:18:09.624Z,99.90
2018-06-30T04:20:38.050Z,99.90
2018-06-30T04:23:06.510Z,99.90
2018-06-30T04:28:03.173Z,99.90
2018-06-30T04:30:31.637Z,99.90
2018-06-30T04:35:28.242Z,99.90
2018-06-30T04:37:56.742Z,99.90
2018-06-30T04:40:25.192Z,99.90
2018-06-30T04:42:53.643Z,99.90
2018-06-30T04:45:22.065Z,99.90
2018-06-30T04:47:50.512Z,99.90
2018-06-30T04:50:18.945Z,99.90
2018-06-30T04:52:47.406Z,99.90
2018-06-30T04:55:15.883Z,99.90
2018-06-30T04:57:44.423Z,99.90
2018-06-30T05:00:12.867Z,99.90
2018-06-30T05:02:41.302Z,99.90
2018-06-30T05:05:09.781Z,99.90
2018-06-30T05:07:38.207Z,99.90
2018-06-30T05:10:06.698Z,99.90
2018-06-30T05:15:03.347Z,99.90
2018-06-30T05:17:31.826Z,99.90
2018-06-30T05:20:00.305Z,99.90
2018-06-30T05:22:28.982Z,99.90
2018-06-30T05:24:57.422Z,99.90
2018-06-30T05:27:25.875Z,99.90
2018-06-30T05:29:54.453Z,99.90
2018-06-30T05:34:51.296Z,99.90
2018-06-30T05:37:19.763Z,99.90
2018-06-30T05:39:48.238Z,99.90
2018-06-30T05:42:16.673Z,99.90
2018-06-30T05:44:45.126Z,99.90
2018-06-30T05:49:41.739Z,99.90
2018-06-30T05:52:10.425Z,99.90
2018-06-30T05:54:39.067Z,99.90
2018-06-30T05:57:08.033Z,99.90
2018-06-30T06:02:04.641Z,99.90
2018-06-30T06:04:33.074Z,99.90
2018-06-30T06:09:29.965Z,99.90
2018-06-30T06:11:58.418Z,99.90
2018-06-30T06:14:26.839Z,99.90
2018-06-30T06:16:55.269Z,99.90
2018-06-30T06:19:23.684Z,99.90
2018-06-30T06:21:52.118Z,99.50
2018-06-30T06:26:48.717Z,98.30
2018-06-30T06:29:17.157Z,99.20
2018-06-30T06:34:13.853Z,97.30
2018-06-30T06:36:42.346Z,97.40
2018-06-30T06:39:11.389Z,96.20
2018-06-30T06:44:08.377Z,95.30
2018-06-30T06:46:36.818Z,95.70
2018-06-30T06:49:05.303Z,94.90
2018-06-30T06:51:33.751Z,93.30
2018-06-30T06:54:02.278Z,94.20
2018-06-30T06:58:58.878Z,92.80
2018-06-30T07:01:27.466Z,92.20
2018-06-30T07:03:55.905Z,91.90
2018-06-30T07:06:24.337Z,91.60
2018-06-30T07:08:52.797Z,91.60
2018-06-30T07:11:21.223Z,91.00
2018-06-30T07:16:18.217Z,90.20
2018-06-30T07:18:46.699Z,90.80
2018-06-30T07:21:15.150Z,90.40
2018-06-30T07:26:11.718Z,89.10
2018-06-30T07:28:40.179Z,90.20
2018-06-30T07:31:08.638Z,90.20
2018-06-30T07:33:37.046Z,89.50
2018-06-30T07:36:05.580Z,89.80
2018-06-30T07:38:34.028Z,90.00
2018-06-30T07:41:02.490Z,88.30
2018-06-30T07:43:30.934Z,88.10
2018-06-30T07:45:59.372Z,86.00
2018-06-30T07:48:27.832Z,85.70
2018-06-30T07:50:56.269Z,85.50
2018-06-30T07:53:24.683Z,84.40
2018-06-30T07:55:53.170Z,84.90
2018-06-30T07:58:21.637Z,84.70
2018-06-30T08:03:18.210Z,86.60
2018-06-30T08:05:46.736Z,86.20
2018-06-30T08:08:15.145Z,84.60
2018-06-30T08:13:11.976Z,84.90
2018-06-30T08:15:40.406Z,83.50
2018-06-30T08:18:08.941Z,83.40
2018-06-30T08:20:37.478Z,84.00
2018-06-30T08:23:06.096Z,82.70
2018-06-30T08:25:35.208Z,80.60
2018-06-30T08:28:03.701Z,80.60
2018-06-30T08:30:32.151Z,81.60
2018-06-30T08:33:00.586Z,81.00
2018-06-30T08:35:29.024Z,83.40
2018-06-30T08:37:57.478Z,83.50
2018-06-30T08:40:25.877Z,82.40
2018-06-30T08:42:54.309Z,83.50
2018-06-30T08:45:22.730Z,80.90
2018-06-30T08:47:51.161Z,81.40
2018-06-30T08:50:19.621Z,78.60
2018-06-30T08:52:48.056Z,79.10
2018-06-30T08:55:16.489Z,77.20
2018-06-30T08:57:44.918Z,76.40
2018-06-30T09:00:13.346Z,77.20
2018-06-30T09:02:41.774Z,73.70
2018-06-30T09:05:10.206Z,78.90
2018-06-30T09:10:06.810Z,73.70
2018-06-30T09:12:35.218Z,75.20
2018-06-30T09:15:03.799Z,73.80
2018-06-30T09:17:32.214Z,75.50
2018-06-30T09:20:00.654Z,76.20
2018-06-30T09:22:29.090Z,76.70
2018-06-30T09:24:57.537Z,74.70
2018-06-30T09:29:54.148Z,73.10
2018-06-30T09:32:22.573Z,71.50
2018-06-30T09:34:51.017Z,73.90
2018-06-30T09:37:19.461Z,73.60
2018-06-30T09:39:47.946Z,72.20
2018-06-30T09:42:16.370Z,69.90
2018-06-30T09:44:44.889Z,68.50
2018-06-30T09:47:13.253Z,70.30
2018-06-30T09:49:41.659Z,68.10
2018-06-30T09:52:10.117Z,68.40
2018-06-30T09:54:38.530Z,68.70
2018-06-30T09:57:06.997Z,71.70
2018-06-30T09:59:35.454Z,70.90
2018-06-30T10:02:03.961Z,68.90
2018-06-30T10:04:32.394Z,66.70
2018-06-30T10:07:00.838Z,65.90
2018-06-30T10:09:29.274Z,65.90
2018-06-30T10:11:57.741Z,64.50
2018-06-30T10:19:22.522Z,61.50
2018-06-30T10:21:50.945Z,63.60
2018-06-30T10:26:47.556Z,59.00
2018-06-30T10:29:15.988Z,59.40
2018-06-30T10:31:44.438Z,59.10
2018-06-30T10:34:12.893Z,59.60
2018-06-30T10:36:41.375Z,59.30
2018-06-30T10:39:11.242Z,58.50
2018-06-30T10:41:40.002Z,58.10
2018-06-30T10:44:08.562Z,56.80
2018-06-30T10:46:37.095Z,52.50
2018-06-30T10:49:06.551Z,54.60
2018-06-30T10:51:34.979Z,54.00
2018-06-30T10:54:03.463Z,51.30
2018-06-30T10:56:31.881Z,59.80
2018-06-30T10:59:00.850Z,55.50
2018-06-30T11:01:29.263Z,53.80
2018-06-30T11:03:57.814Z,51.40
2018-06-30T11:06:26.222Z,50.40
2018-06-30T11:08:54.731Z,47.80
2018-06-30T11:13:51.313Z,47.20
2018-06-30T11:16:19.762Z,50.20
2018-06-30T11:18:48.218Z,47.50
2018-06-30T11:21:16.637Z,45.10
2018-06-30T11:23:45.087Z,46.20
2018-06-30T11:26:13.547Z,45.40
2018-06-30T11:28:41.965Z,48.00
2018-06-30T11:33:38.598Z,45.50
2018-06-30T11:36:07.017Z,47.70
2018-06-30T11:38:35.454Z,47.70
2018-06-30T11:41:03.910Z,48.30
2018-06-30T11:43:32.314Z,46.20
2018-06-30T11:46:00.761Z,44.90
2018-06-30T11:48:29.217Z,45.90
2018-06-30T11:50:57.677Z,44.10
2018-06-30T11:53:26.106Z,45.80
2018-06-30T11:55:54.596Z,46.00
2018-06-30T11:58:22.997Z,51.50
2018-06-30T12:00:51.431Z,50.50
2018-06-30T12:03:19.849Z,46.30
2018-06-30T12:05:48.315Z,46.30
2018-06-30T12:08:16.718Z,48.40
2018-06-30T12:10:45.156Z,48.50
2018-06-30T12:13:13.601Z,48.80
2018-06-30T12:15:42.042Z,51.70
2018-06-30T12:18:10.504Z,53.90
2018-06-30T12:20:39.035Z,51.50
2018-06-30T12:23:07.455Z,52.10
2018-06-30T12:25:35.883Z,52.70
2018-06-30T12:28:04.336Z,51.50
2018-06-30T12:30:32.814Z,48.90
2018-06-30T12:33:01.239Z,49.30
2018-06-30T12:35:29.671Z,51.80
2018-06-30T12:37:58.129Z,50.40
2018-06-30T12:40:26.565Z,53.70
2018-06-30T12:45:23.093Z,48.60
2018-06-30T12:47:51.562Z,51.20
2018-06-30T12:50:20.007Z,50.10
2018-06-30T12:52:48.457Z,49.30
2018-06-30T12:57:45.034Z,48.80
2018-06-30T13:00:13.462Z,47.80
2018-06-30T13:02:41.917Z,50.40
2018-06-30T13:05:10.407Z,49.60
2018-06-30T13:07:38.845Z,49.50
2018-06-30T13:10:07.317Z,46.90
2018-06-30T13:12:35.819Z,46.10
2018-06-30T13:15:04.322Z,45.40
2018-06-30T13:17:32.795Z,47.70
2018-06-30T13:20:01.254Z,47.10
2018-06-30T13:22:30.233Z,45.80
2018-06-30T13:24:58.686Z,45.00
2018-06-30T13:27:27.130Z,45.70
2018-06-30T13:29:55.703Z,43.50
2018-06-30T13:32:24.126Z,42.50
2018-06-30T13:34:52.594Z,42.00
2018-06-30T13:37:21.076Z,45.90
2018-06-30T13:39:49.597Z,43.10
2018-06-30T13:42:18.054Z,40.20
2018-06-30T13:47:14.691Z,44.20
2018-06-30T13:49:43.637Z,42.80
2018-06-30T13:52:12.111Z,39.10
2018-06-30T13:54:40.658Z,35.90
2018-06-30T13:57:09.131Z,33.90
2018-06-30T13:59:37.653Z,34.40
2018-06-30T14:02:06.276Z,35.40
2018-06-30T14:04:34.703Z,35.00
2018-06-30T14:07:03.183Z,32.60
2018-06-30T14:09:31.636Z,31.10
2018-06-30T14:12:00.467Z,29.40
2018-06-30T14:14:28.921Z,32.50
2018-06-30T14:19:25.507Z,32.30
2018-06-30T14:21:53.991Z,30.70
2018-06-30T14:24:22.437Z,33.80
2018-06-30T14:29:19.072Z,31.10
2018-06-30T14:31:47.517Z,30.90
2018-06-30T14:34:15.937Z,33.00
2018-06-30T14:36:44.389Z,30.40
2018-06-30T14:39:13.429Z,31.60
2018-06-30T14:41:41.943Z,31.90
2018-06-30T14:44:10.422Z,33.30
2018-06-30T14:46:38.869Z,31.00
2018-06-30T14:49:07.286Z,32.30
2018-06-30T14:51:36.350Z,30.30
2018-06-30T14:54:04.829Z,31.30
2018-06-30T14:56:33.295Z,33.30
2018-06-30T14:59:01.713Z,32.80
2018-06-30T15:01:30.253Z,31.50
2018-06-30T15:06:26.808Z,31.00
2018-06-30T15:08:55.229Z,30.50
2018-06-30T15:11:23.694Z,32.40
2018-06-30T15:13:52.147Z,32.20
2018-06-30T15:18:48.723Z,31.70
2018-06-30T15:21:17.691Z,32.40
2018-06-30T15:23:46.185Z,35.10
2018-06-30T15:26:14.669Z,35.70
2018-06-30T15:28:43.081Z,35.20
2018-06-30T15:31:11.554Z,32.60
2018-06-30T15:33:39.970Z,33.80
2018-06-30T15:36:08.543Z,34.40
2018-06-30T15:38:36.901Z,34.10
2018-06-30T15:41:05.384Z,34.30
2018-06-30T15:43:33.821Z,32.40
2018-06-30T15:46:02.266Z,33.20
2018-06-30T15:48:30.734Z,34.20
2018-06-30T15:50:59.206Z,38.70
2018-06-30T15:53:27.657Z,40.70
2018-06-30T15:55:56.093Z,43.30
2018-06-30T15:58:24.577Z,45.30
2018-06-30T16:03:21.194Z,47.60
2018-06-30T16:05:49.609Z,48.60
2018-06-30T16:08:18.174Z,49.30
2018-06-30T16:10:46.657Z,50.80
2018-06-30T16:13:15.105Z,50.60
2018-06-30T16:15:43.563Z,51.20
2018-06-30T16:18:12.014Z,50.20
2018-06-30T16:23:08.739Z,49.20
2018-06-30T16:25:37.103Z,47.30
2018-06-30T16:28:06.021Z,48.20
2018-06-30T16:30:34.507Z,50.60
2018-06-30T16:35:31.278Z,53.30
2018-06-30T16:38:00.726Z,53.30
2018-06-30T16:40:29.145Z,53.90
2018-06-30T16:42:57.666Z,55.00
2018-06-30T16:45:26.103Z,54.10
2018-06-30T16:47:54.574Z,55.10
2018-06-30T16:50:23.018Z,56.00
2018-06-30T16:52:51.473Z,55.90
2018-06-30T16:55:19.893Z,55.60
2018-06-30T16:57:48.345Z,56.10
2018-06-30T17:00:16.839Z,56.20
2018-06-30T17:02:45.273Z,57.20
2018-06-30T17:05:13.760Z,58.20
2018-06-30T17:10:10.346Z,59.80
2018-06-30T17:12:38.805Z,60.10
2018-06-30T17:15:07.808Z,59.50
2018-06-30T17:17:36.282Z,60.30
2018-06-30T17:20:05.025Z,61.00
2018-06-30T17:22:33.433Z,62.30
2018-06-30T17:25:01.877Z,62.80
2018-06-30T17:27:30.314Z,63.40
2018-06-30T17:29:58.795Z,64.00
2018-06-30T17:32:27.252Z,64.10
2018-06-30T17:34:55.729Z,64.20
2018-06-30T17:39:52.308Z,67.40
2018-06-30T17:42:20.743Z,67.30
2018-06-30T17:44:49.242Z,66.40
2018-06-30T17:47:17.721Z,66.60
2018-06-30T17:52:14.363Z,68.00
2018-06-30T17:54:42.830Z,69.30
2018-06-30T17:57:11.270Z,69.00
2018-06-30T17:59:39.749Z,69.30
2018-06-30T18:02:08.198Z,70.40
2018-06-30T18:04:36.646Z,70.40
2018-06-30T18:07:05.297Z,69.90
2018-06-30T18:09:33.700Z,70.90
2018-06-30T18:12:02.167Z,70.80
2018-06-30T18:14:30.582Z,71.60
2018-06-30T18:16:59.125Z,71.90
2018-06-30T18:19:27.554Z,72.70
2018-06-30T18:21:56.023Z,73.00
2018-06-30T18:24:24.449Z,72.40
2018-06-30T18:26:52.915Z,73.50
2018-06-30T18:29:21.383Z,72.20
2018-06-30T18:31:49.826Z,73.40
2018-06-30T18:34:18.718Z,74.00
2018-06-30T18:36:47.247Z,74.00
2018-06-30T18:39:15.761Z,75.10
2018-06-30T18:41:44.221Z,75.00
2018-06-30T18:44:12.698Z,75.60
2018-06-30T18:46:41.192Z,76.00
2018-06-30T18:49:09.649Z,76.20
2018-06-30T18:51:38.109Z,76.50
2018-06-30T18:54:07.330Z,76.20
2018-06-30T18:56:35.827Z,76.00
2018-06-30T18:59:04.301Z,76.70
2018-06-30T19:01:32.767Z,76.40
2018-06-30T19:04:01.219Z,76.40
2018-06-30T19:08:58.015Z,76.70
2018-06-30T19:11:26.453Z,77.00
2018-06-30T19:18:51.238Z,78.60
2018-06-30T19:21:19.753Z,79.20
2018-06-30T19:23:48.186Z,79.50
2018-06-30T19:26:16.638Z,80.10
2018-06-30T19:28:45.085Z,80.30
2018-06-30T19:31:13.665Z,81.20
2018-06-30T19:33:42.114Z,81.70
2018-06-30T19:36:10.542Z,82.00
2018-06-30T19:38:38.998Z,82.10
2018-06-30T19:41:07.522Z,82.90
2018-06-30T19:43:36.042Z,82.70
2018-06-30T19:46:04.479Z,82.30
2018-06-30T19:51:01.134Z,80.90
2018-06-30T19:53:29.622Z,80.50
2018-06-30T19:55:58.102Z,80.20
2018-06-30T19:58:26.577Z,80.00
2018-06-30T20:05:51.344Z,78.60
2018-06-30T20:08:19.788Z,77.50
2018-06-30T20:10:49.131Z,78.00
2018-06-30T20:13:17.598Z,78.30
2018-06-30T20:15:46.073Z,78.40
2018-06-30T20:18:14.523Z,78.70
2018-06-30T20:20:43.006Z,79.00
2018-06-30T20:23:11.460Z,79.10
2018-06-30T20:25:39.937Z,78.60
2018-06-30T20:28:08.513Z,75.50
2018-06-30T20:30:36.955Z,74.40
2018-06-30T20:33:05.474Z,73.40
2018-06-30T20:35:33.958Z,72.50
2018-06-30T20:38:02.401Z,72.00
2018-06-30T20:40:30.873Z,71.30
2018-06-30T20:42:59.330Z,71.80
2018-06-30T20:45:27.852Z,69.90
2018-06-30T20:47:56.307Z,70.40
2018-06-30T20:50:24.822Z,68.40
2018-06-30T20:52:53.296Z,69.00
2018-06-30T20:55:21.736Z,68.40
2018-06-30T20:57:50.192Z,67.10
2018-06-30T21:02:50.126Z,65.20
2018-06-30T21:05:18.566Z,66.50
2018-06-30T21:07:47.042Z,66.00
2018-06-30T21:10:15.462Z,63.30
2018-06-30T21:12:43.918Z,59.80
2018-06-30T21:15:12.368Z,60.20
2018-06-30T21:17:40.960Z,59.30
2018-06-30T21:20:09.375Z,58.70
2018-06-30T21:25:06.224Z,57.00
2018-06-30T21:27:34.709Z,57.10
2018-06-30T21:32:31.393Z,56.10
2018-06-30T21:34:59.841Z,54.50
2018-06-30T21:37:28.326Z,56.10
2018-06-30T21:39:56.757Z,56.30
2018-06-30T21:42:25.208Z,57.00
2018-06-30T21:44:53.680Z,57.40
2018-06-30T21:47:22.125Z,56.50
2018-06-30T21:49:50.622Z,55.70
2018-06-30T21:52:19.062Z,55.80
2018-06-30T21:54:47.540Z,55.40
2018-06-30T21:57:15.967Z,55.60
2018-06-30T21:59:44.451Z,54.80
2018-06-30T22:02:12.930Z,54.80
2018-06-30T22:04:41.426Z,54.70
2018-06-30T22:09:38.066Z,54.20
2018-06-30T22:12:06.578Z,54.80
2018-06-30T22:14:35.046Z,55.10
2018-06-30T22:17:03.517Z,55.00
2018-06-30T22:19:31.997Z,55.30
2018-06-30T22:24:28.635Z,56.20
2018-06-30T22:26:57.093Z,56.50
2018-06-30T22:29:25.598Z,57.60
2018-06-30T22:31:54.683Z,57.90
2018-06-30T22:34:23.137Z,57.40
2018-06-30T22:36:51.720Z,58.40
2018-06-30T22:39:31.348Z,58.30
2018-06-30T22:41:59.805Z,59.00
2018-06-30T22:44:28.830Z,59.80
2018-06-30T22:46:57.293Z,60.40
2018-06-30T22:49:25.757Z,60.40
2018-06-30T22:51:54.333Z,61.50
2018-06-30T22:56:50.954Z,62.20
2018-06-30T22:59:19.386Z,61.90
2018-06-30T23:01:47.852Z,62.40
2018-06-30T23:04:16.410Z,63.00
2018-06-30T23:09:13.009Z,63.50
2018-06-30T23:11:41.473Z,63.00
2018-06-30T23:14:09.948Z,62.30
2018-06-30T23:16:38.449Z,63.40
2018-06-30T23:19:06.874Z,62.80
2018-06-30T23:21:35.340Z,61.50
2018-06-30T23:24:03.801Z,62.30
2018-06-30T23:26:32.278Z,61.30
2018-06-30T23:29:00.730Z,61.90
2018-06-30T23:31:29.338Z,62.00
2018-06-30T23:33:57.775Z,63.00
2018-06-30T23:38:54.374Z,62.20
2018-06-30T23:41:22.904Z,63.60
2018-06-30T23:43:51.441Z,63.10
2018-06-30T23:46:19.920Z,62.80
2018-06-30T23:48:48.371Z,62.50
2018-06-30T23:51:16.821Z,62.80
2018-06-30T23:56:13.383Z,63.70
2018-06-30T23:58:41.864Z,63.20
